sensor_id;sensor_type;location;lat;lon;timestamp;P1;durP1;ratioP1;P2;durP2;ratioP2
78820;SDS011;68171;13.882;99.692;2023-07-13T00:00:05;16.23;;;5.28;;
78820;SDS011;68171;13.882;99.692;2023-07-13T00:01:14;14.98;;;5.63;;
78820;SDS011;68171;13.882;99.692;2023-07-13T00:02:20;16.90;;;4.65;;
78820;SDS011;68171;13.882;99.692;2023-07-13T00:03:27;10.33;;;4.53;;
78820;SDS011;68171;13.882;99.692;2023-07-13T00:04:38;11.57;;;4.13;;
78820;SDS011;68171;13.882;99.692;2023-07-13T00:05:45;10.80;;;3.75;;
78820;SDS011;68171;13.882;99.692;2023-07-13T00:06:52;10.73;;;3.97;;
78820;SDS011;68171;13.882;99.692;2023-07-13T00:07:59;10.02;;;3.40;;
78820;SDS011;68171;13.882;99.692;2023-07-13T00:09:04;8.52;;;3.05;;
78820;SDS011;68171;13.882;99.692;2023-07-13T00:10:11;6.70;;;2.88;;
78820;SDS011;68171;13.882;99.692;2023-07-13T00:11:17;11.57;;;3.50;;
78820;SDS011;68171;13.882;99.692;2023-07-13T00:12:26;11.02;;;3.10;;
78820;SDS011;68171;13.882;99.692;2023-07-13T00:13:33;14.27;;;3.15;;
78820;SDS011;68171;13.882;99.692;2023-07-13T00:14:41;12.03;;;3.00;;
78820;SDS011;68171;13.882;99.692;2023-07-13T00:15:47;6.78;;;3.10;;
78820;SDS011;68171;13.882;99.692;2023-07-13T00:16:54;7.30;;;2.63;;
78820;SDS011;68171;13.882;99.692;2023-07-13T00:18:00;7.13;;;2.80;;
78820;SDS011;68171;13.882;99.692;2023-07-13T00:19:08;8.23;;;2.80;;
78820;SDS011;68171;13.882;99.692;2023-07-13T00:20:14;7.93;;;3.45;;
78820;SDS011;68171;13.882;99.692;2023-07-13T00:21:20;10.55;;;3.45;;
78820;SDS011;68171;13.882;99.692;2023-07-13T00:22:26;13.15;;;4.22;;
78820;SDS011;68171;13.882;99.692;2023-07-13T00:23:33;11.35;;;4.00;;
78820;SDS011;68171;13.882;99.692;2023-07-13T00:24:38;11.93;;;4.30;;
78820;SDS011;68171;13.882;99.692;2023-07-13T00:25:45;12.40;;;4.73;;
78820;SDS011;68171;13.882;99.692;2023-07-13T00:26:51;16.38;;;6.63;;
78820;SDS011;68171;13.882;99.692;2023-07-13T00:27:59;13.27;;;5.25;;
78820;SDS011;68171;13.882;99.692;2023-07-13T00:29:05;18.63;;;6.57;;
78820;SDS011;68171;13.882;99.692;2023-07-13T00:30:13;13.77;;;4.35;;
78820;SDS011;68171;13.882;99.692;2023-07-13T00:31:18;11.85;;;3.60;;
78820;SDS011;68171;13.882;99.692;2023-07-13T00:32:25;10.68;;;3.65;;
78820;SDS011;68171;13.882;99.692;2023-07-13T00:33:30;7.68;;;3.60;;
78820;SDS011;68171;13.882;99.692;2023-07-13T00:34:37;9.82;;;3.95;;
78820;SDS011;68171;13.882;99.692;2023-07-13T00:35:42;13.38;;;4.10;;
78820;SDS011;68171;13.882;99.692;2023-07-13T00:36:49;11.83;;;3.80;;
78820;SDS011;68171;13.882;99.692;2023-07-13T00:37:54;10.88;;;3.45;;
78820;SDS011;68171;13.882;99.692;2023-07-13T00:39:01;7.28;;;3.40;;
78820;SDS011;68171;13.882;99.692;2023-07-13T00:40:07;8.63;;;3.67;;
78820;SDS011;68171;13.882;99.692;2023-07-13T00:41:15;9.38;;;3.70;;
78820;SDS011;68171;13.882;99.692;2023-07-13T00:42:21;11.75;;;3.47;;
78820;SDS011;68171;13.882;99.692;2023-07-13T00:43:29;12.18;;;3.42;;
78820;SDS011;68171;13.882;99.692;2023-07-13T00:44:34;8.80;;;3.45;;
78820;SDS011;68171;13.882;99.692;2023-07-13T00:47:20;11.32;;;3.42;;
78820;SDS011;68171;13.882;99.692;2023-07-13T00:48:27;9.00;;;3.20;;
78820;SDS011;68171;13.882;99.692;2023-07-13T00:49:35;9.90;;;3.60;;
78820;SDS011;68171;13.882;99.692;2023-07-13T00:50:42;9.60;;;3.25;;
78820;SDS011;68171;13.882;99.692;2023-07-13T00:51:49;9.57;;;3.10;;
78820;SDS011;68171;13.882;99.692;2023-07-13T00:52:57;8.85;;;3.30;;
78820;SDS011;68171;13.882;99.692;2023-07-13T00:54:04;10.57;;;3.22;;
78820;SDS011;68171;13.882;99.692;2023-07-13T00:55:12;6.63;;;2.50;;
78820;SDS011;68171;13.882;99.692;2023-07-13T00:56:18;8.50;;;3.03;;
78820;SDS011;68171;13.882;99.692;2023-07-13T00:57:25;8.52;;;2.65;;
78820;SDS011;68171;13.882;99.692;2023-07-13T00:58:32;8.45;;;3.00;;
78820;SDS011;68171;13.882;99.692;2023-07-13T00:59:40;7.53;;;2.83;;
78820;SDS011;68171;13.882;99.692;2023-07-13T01:00:47;7.57;;;2.80;;
78820;SDS011;68171;13.882;99.692;2023-07-13T01:01:55;6.85;;;3.20;;
78820;SDS011;68171;13.882;99.692;2023-07-13T01:03:00;9.18;;;3.08;;
78820;SDS011;68171;13.882;99.692;2023-07-13T01:04:07;9.52;;;3.20;;
78820;SDS011;68171;13.882;99.692;2023-07-13T01:05:14;7.13;;;2.85;;
78820;SDS011;68171;13.882;99.692;2023-07-13T01:06:22;6.75;;;2.92;;
78820;SDS011;68171;13.882;99.692;2023-07-13T01:07:28;7.10;;;2.95;;
78820;SDS011;68171;13.882;99.692;2023-07-13T01:08:34;9.30;;;3.35;;
78820;SDS011;68171;13.882;99.692;2023-07-13T01:09:40;7.63;;;2.92;;
78820;SDS011;68171;13.882;99.692;2023-07-13T01:10:52;6.27;;;2.57;;
78820;SDS011;68171;13.882;99.692;2023-07-13T01:11:58;6.88;;;2.72;;
78820;SDS011;68171;13.882;99.692;2023-07-13T01:13:05;11.93;;;3.50;;
78820;SDS011;68171;13.882;99.692;2023-07-13T01:14:13;11.00;;;3.13;;
78820;SDS011;68171;13.882;99.692;2023-07-13T01:15:34;9.13;;;3.40;;
78820;SDS011;68171;13.882;99.692;2023-07-13T01:16:41;6.18;;;2.67;;
78820;SDS011;68171;13.882;99.692;2023-07-13T01:17:50;9.80;;;2.90;;
78820;SDS011;68171;13.882;99.692;2023-07-13T01:18:56;7.22;;;3.08;;
78820;SDS011;68171;13.882;99.692;2023-07-13T01:20:02;12.35;;;3.63;;
78820;SDS011;68171;13.882;99.692;2023-07-13T01:21:13;8.80;;;3.00;;
78820;SDS011;68171;13.882;99.692;2023-07-13T01:22:19;9.63;;;3.17;;
78820;SDS011;68171;13.882;99.692;2023-07-13T01:23:29;9.85;;;3.13;;
78820;SDS011;68171;13.882;99.692;2023-07-13T01:24:35;9.60;;;3.50;;
78820;SDS011;68171;13.882;99.692;2023-07-13T01:25:43;8.70;;;3.53;;
78820;SDS011;68171;13.882;99.692;2023-07-13T01:26:48;8.60;;;3.38;;
78820;SDS011;68171;13.882;99.692;2023-07-13T01:27:55;7.38;;;2.92;;
78820;SDS011;68171;13.882;99.692;2023-07-13T01:29:00;9.90;;;4.60;;
78820;SDS011;68171;13.882;99.692;2023-07-13T01:30:07;9.30;;;3.25;;
78820;SDS011;68171;13.882;99.692;2023-07-13T01:31:12;9.50;;;3.38;;
78820;SDS011;68171;13.882;99.692;2023-07-13T01:32:20;8.43;;;3.10;;
78820;SDS011;68171;13.882;99.692;2023-07-13T01:33:27;10.33;;;3.30;;
78820;SDS011;68171;13.882;99.692;2023-07-13T01:34:34;7.72;;;3.05;;
78820;SDS011;68171;13.882;99.692;2023-07-13T01:35:40;9.27;;;3.13;;
78820;SDS011;68171;13.882;99.692;2023-07-13T01:36:51;10.38;;;4.20;;
78820;SDS011;68171;13.882;99.692;2023-07-13T01:37:57;10.23;;;3.90;;
78820;SDS011;68171;13.882;99.692;2023-07-13T01:39:04;12.15;;;4.10;;
78820;SDS011;68171;13.882;99.692;2023-07-13T01:40:10;8.52;;;3.38;;
78820;SDS011;68171;13.882;99.692;2023-07-13T01:41:17;13.23;;;4.35;;
78820;SDS011;68171;13.882;99.692;2023-07-13T01:42:23;11.13;;;3.97;;
78820;SDS011;68171;13.882;99.692;2023-07-13T01:43:29;12.02;;;3.90;;
78820;SDS011;68171;13.882;99.692;2023-07-13T01:44:36;8.03;;;3.00;;
78820;SDS011;68171;13.882;99.692;2023-07-13T01:45:42;6.82;;;2.92;;
78820;SDS011;68171;13.882;99.692;2023-07-13T01:46:48;8.13;;;2.85;;
78820;SDS011;68171;13.882;99.692;2023-07-13T01:47:54;7.88;;;3.10;;
78820;SDS011;68171;13.882;99.692;2023-07-13T01:49:00;8.15;;;3.20;;
78820;SDS011;68171;13.882;99.692;2023-07-13T01:50:07;7.13;;;3.10;;
78820;SDS011;68171;13.882;99.692;2023-07-13T01:51:12;10.02;;;3.50;;
78820;SDS011;68171;13.882;99.692;2023-07-13T01:52:22;7.95;;;3.13;;
78820;SDS011;68171;13.882;99.692;2023-07-13T01:53:28;7.22;;;3.33;;
78820;SDS011;68171;13.882;99.692;2023-07-13T01:54:34;10.80;;;2.80;;
78820;SDS011;68171;13.882;99.692;2023-07-13T01:55:40;9.97;;;4.13;;
78820;SDS011;68171;13.882;99.692;2023-07-13T01:56:46;10.07;;;3.00;;
78820;SDS011;68171;13.882;99.692;2023-07-13T01:57:52;10.23;;;2.83;;
78820;SDS011;68171;13.882;99.692;2023-07-13T01:58:58;13.02;;;3.10;;
78820;SDS011;68171;13.882;99.692;2023-07-13T02:00:04;10.60;;;3.33;;
78820;SDS011;68171;13.882;99.692;2023-07-13T02:01:12;8.32;;;2.88;;
78820;SDS011;68171;13.882;99.692;2023-07-13T02:02:17;10.13;;;2.63;;
78820;SDS011;68171;13.882;99.692;2023-07-13T02:03:25;8.15;;;2.50;;
78820;SDS011;68171;13.882;99.692;2023-07-13T02:04:30;7.25;;;2.30;;
78820;SDS011;68171;13.882;99.692;2023-07-13T02:05:37;5.65;;;2.63;;
78820;SDS011;68171;13.882;99.692;2023-07-13T02:06:42;9.33;;;2.70;;
78820;SDS011;68171;13.882;99.692;2023-07-13T02:07:50;6.18;;;2.22;;
78820;SDS011;68171;13.882;99.692;2023-07-13T02:08:57;5.95;;;2.10;;
78820;SDS011;68171;13.882;99.692;2023-07-13T02:10:04;6.85;;;2.72;;
78820;SDS011;68171;13.882;99.692;2023-07-13T02:11:10;5.88;;;2.50;;
78820;SDS011;68171;13.882;99.692;2023-07-13T02:12:17;6.05;;;2.42;;
78820;SDS011;68171;13.882;99.692;2023-07-13T02:13:22;16.38;;;9.07;;
78820;SDS011;68171;13.882;99.692;2023-07-13T02:14:29;9.18;;;3.47;;
78820;SDS011;68171;13.882;99.692;2023-07-13T02:15:37;9.15;;;2.95;;
78820;SDS011;68171;13.882;99.692;2023-07-13T02:16:45;6.60;;;3.00;;
78820;SDS011;68171;13.882;99.692;2023-07-13T02:17:52;9.80;;;3.03;;
78820;SDS011;68171;13.882;99.692;2023-07-13T02:18:58;7.47;;;2.85;;
78820;SDS011;68171;13.882;99.692;2023-07-13T02:20:05;9.10;;;3.28;;
78820;SDS011;68171;13.882;99.692;2023-07-13T02:21:13;9.48;;;4.30;;
78820;SDS011;68171;13.882;99.692;2023-07-13T02:22:18;10.45;;;3.50;;
78820;SDS011;68171;13.882;99.692;2023-07-13T02:23:25;9.38;;;2.92;;
78820;SDS011;68171;13.882;99.692;2023-07-13T02:24:32;8.60;;;3.65;;
78820;SDS011;68171;13.882;99.692;2023-07-13T02:25:37;7.68;;;3.05;;
78820;SDS011;68171;13.882;99.692;2023-07-13T02:26:44;12.63;;;3.20;;
78820;SDS011;68171;13.882;99.692;2023-07-13T02:27:49;9.63;;;3.65;;
78820;SDS011;68171;13.882;99.692;2023-07-13T02:28:56;12.03;;;3.07;;
78820;SDS011;68171;13.882;99.692;2023-07-13T02:30:01;7.78;;;3.38;;
78820;SDS011;68171;13.882;99.692;2023-07-13T02:31:07;9.60;;;2.80;;
78820;SDS011;68171;13.882;99.692;2023-07-13T02:32:15;6.80;;;2.65;;
78820;SDS011;68171;13.882;99.692;2023-07-13T02:33:20;10.15;;;2.83;;
78820;SDS011;68171;13.882;99.692;2023-07-13T02:34:27;8.82;;;2.40;;
78820;SDS011;68171;13.882;99.692;2023-07-13T02:35:34;6.65;;;2.35;;
78820;SDS011;68171;13.882;99.692;2023-07-13T02:36:41;7.57;;;2.30;;
78820;SDS011;68171;13.882;99.692;2023-07-13T02:37:46;6.72;;;2.70;;
78820;SDS011;68171;13.882;99.692;2023-07-13T02:38:54;6.28;;;2.75;;
78820;SDS011;68171;13.882;99.692;2023-07-13T02:40:00;8.83;;;2.87;;
78820;SDS011;68171;13.882;99.692;2023-07-13T02:41:13;6.90;;;2.85;;
78820;SDS011;68171;13.882;99.692;2023-07-13T02:42:19;7.88;;;3.88;;
78820;SDS011;68171;13.882;99.692;2023-07-13T02:43:25;9.70;;;3.10;;
78820;SDS011;68171;13.882;99.692;2023-07-13T02:44:30;6.43;;;2.40;;
78820;SDS011;68171;13.882;99.692;2023-07-13T02:45:37;6.35;;;2.40;;
78820;SDS011;68171;13.882;99.692;2023-07-13T02:46:42;7.30;;;2.90;;
78820;SDS011;68171;13.882;99.692;2023-07-13T02:47:48;8.32;;;2.67;;
78820;SDS011;68171;13.882;99.692;2023-07-13T02:48:55;9.02;;;2.45;;
78820;SDS011;68171;13.882;99.692;2023-07-13T02:50:00;6.63;;;2.60;;
78820;SDS011;68171;13.882;99.692;2023-07-13T02:51:07;6.27;;;2.63;;
78820;SDS011;68171;13.882;99.692;2023-07-13T02:52:12;7.03;;;2.33;;
78820;SDS011;68171;13.882;99.692;2023-07-13T02:53:19;10.48;;;2.88;;
78820;SDS011;68171;13.882;99.692;2023-07-13T02:54:26;6.95;;;3.03;;
78820;SDS011;68171;13.882;99.692;2023-07-13T02:55:33;10.80;;;2.70;;
78820;SDS011;68171;13.882;99.692;2023-07-13T02:56:38;9.70;;;2.60;;
78820;SDS011;68171;13.882;99.692;2023-07-13T02:57:44;9.60;;;2.50;;
78820;SDS011;68171;13.882;99.692;2023-07-13T02:58:50;8.68;;;2.63;;
78820;SDS011;68171;13.882;99.692;2023-07-13T02:59:56;8.23;;;2.95;;
78820;SDS011;68171;13.882;99.692;2023-07-13T03:01:06;8.27;;;2.80;;
78820;SDS011;68171;13.882;99.692;2023-07-13T03:02:13;9.17;;;2.70;;
78820;SDS011;68171;13.882;99.692;2023-07-13T03:03:18;8.82;;;2.60;;
78820;SDS011;68171;13.882;99.692;2023-07-13T03:04:25;5.75;;;2.45;;
78820;SDS011;68171;13.882;99.692;2023-07-13T03:05:30;9.02;;;2.63;;
78820;SDS011;68171;13.882;99.692;2023-07-13T03:06:37;9.30;;;2.42;;
78820;SDS011;68171;13.882;99.692;2023-07-13T03:07:42;8.10;;;2.35;;
78820;SDS011;68171;13.882;99.692;2023-07-13T03:08:49;8.88;;;2.50;;
78820;SDS011;68171;13.882;99.692;2023-07-13T03:09:56;6.35;;;2.40;;
78820;SDS011;68171;13.882;99.692;2023-07-13T03:11:04;6.05;;;2.10;;
78820;SDS011;68171;13.882;99.692;2023-07-13T03:12:11;7.15;;;2.95;;
78820;SDS011;68171;13.882;99.692;2023-07-13T03:13:18;6.93;;;2.50;;
78820;SDS011;68171;13.882;99.692;2023-07-13T03:14:23;5.43;;;2.10;;
78820;SDS011;68171;13.882;99.692;2023-07-13T03:15:30;7.13;;;2.25;;
78820;SDS011;68171;13.882;99.692;2023-07-13T03:16:35;11.48;;;2.70;;
78820;SDS011;68171;13.882;99.692;2023-07-13T03:17:42;11.85;;;4.13;;
78820;SDS011;68171;13.882;99.692;2023-07-13T03:18:47;9.07;;;4.40;;
78820;SDS011;68171;13.882;99.692;2023-07-13T03:19:54;18.58;;;10.30;;
78820;SDS011;68171;13.882;99.692;2023-07-13T03:21:00;11.07;;;6.03;;
78820;SDS011;68171;13.882;99.692;2023-07-13T03:22:07;10.23;;;3.47;;
78820;SDS011;68171;13.882;99.692;2023-07-13T03:23:13;7.88;;;4.15;;
78820;SDS011;68171;13.882;99.692;2023-07-13T03:24:19;11.57;;;5.80;;
78820;SDS011;68171;13.882;99.692;2023-07-13T03:25:28;10.60;;;5.18;;
78820;SDS011;68171;13.882;99.692;2023-07-13T03:26:35;8.70;;;4.32;;
78820;SDS011;68171;13.882;99.692;2023-07-13T03:27:40;9.20;;;4.72;;
78820;SDS011;68171;13.882;99.692;2023-07-13T03:28:47;9.80;;;5.25;;
78820;SDS011;68171;13.882;99.692;2023-07-13T03:29:52;10.63;;;4.88;;
78820;SDS011;68171;13.882;99.692;2023-07-13T03:30:59;8.10;;;3.65;;
78820;SDS011;68171;13.882;99.692;2023-07-13T03:32:06;8.32;;;4.05;;
78820;SDS011;68171;13.882;99.692;2023-07-13T03:33:13;7.82;;;4.05;;
78820;SDS011;68171;13.882;99.692;2023-07-13T03:34:18;9.05;;;4.65;;
78820;SDS011;68171;13.882;99.692;2023-07-13T03:35:25;11.07;;;4.87;;
78820;SDS011;68171;13.882;99.692;2023-07-13T03:36:30;8.32;;;3.25;;
78820;SDS011;68171;13.882;99.692;2023-07-13T03:37:38;7.78;;;2.85;;
78820;SDS011;68171;13.882;99.692;2023-07-13T03:38:46;6.30;;;3.00;;
78820;SDS011;68171;13.882;99.692;2023-07-13T03:39:53;7.15;;;3.33;;
78820;SDS011;68171;13.882;99.692;2023-07-13T03:41:00;6.40;;;2.38;;
78820;SDS011;68171;13.882;99.692;2023-07-13T03:42:07;8.13;;;2.33;;
78820;SDS011;68171;13.882;99.692;2023-07-13T03:43:12;6.68;;;2.13;;
78820;SDS011;68171;13.882;99.692;2023-07-13T03:44:19;7.38;;;2.20;;
78820;SDS011;68171;13.882;99.692;2023-07-13T03:45:24;7.05;;;2.15;;
78820;SDS011;68171;13.882;99.692;2023-07-13T03:46:31;6.30;;;1.80;;
78820;SDS011;68171;13.882;99.692;2023-07-13T03:47:37;7.70;;;2.95;;
78820;SDS011;68171;13.882;99.692;2023-07-13T03:48:44;9.50;;;3.13;;
78820;SDS011;68171;13.882;99.692;2023-07-13T03:49:50;6.70;;;2.33;;
78820;SDS011;68171;13.882;99.692;2023-07-13T03:50:56;7.47;;;2.45;;
78820;SDS011;68171;13.882;99.692;2023-07-13T03:52:02;5.50;;;2.30;;
78820;SDS011;68171;13.882;99.692;2023-07-13T03:53:09;5.63;;;2.00;;
78820;SDS011;68171;13.882;99.692;2023-07-13T03:54:14;5.75;;;2.10;;
78820;SDS011;68171;13.882;99.692;2023-07-13T03:55:21;7.47;;;3.22;;
78820;SDS011;68171;13.882;99.692;2023-07-13T03:56:28;8.80;;;3.45;;
78820;SDS011;68171;13.882;99.692;2023-07-13T03:57:36;10.07;;;3.13;;
78820;SDS011;68171;13.882;99.692;2023-07-13T03:58:41;7.60;;;2.20;;
78820;SDS011;68171;13.882;99.692;2023-07-13T03:59:49;7.97;;;2.83;;
78820;SDS011;68171;13.882;99.692;2023-07-13T04:00:54;6.60;;;2.30;;
78820;SDS011;68171;13.882;99.692;2023-07-13T04:02:01;7.28;;;2.10;;
78820;SDS011;68171;13.882;99.692;2023-07-13T04:03:08;7.00;;;2.58;;
78820;SDS011;68171;13.882;99.692;2023-07-13T04:04:14;7.70;;;3.10;;
78820;SDS011;68171;13.882;99.692;2023-07-13T04:05:20;7.28;;;3.03;;
78820;SDS011;68171;13.882;99.692;2023-07-13T04:06:27;7.80;;;2.88;;
78820;SDS011;68171;13.882;99.692;2023-07-13T04:07:33;7.80;;;2.25;;
78820;SDS011;68171;13.882;99.692;2023-07-13T04:08:40;7.73;;;2.20;;
78820;SDS011;68171;13.882;99.692;2023-07-13T04:09:46;6.60;;;2.10;;
78820;SDS011;68171;13.882;99.692;2023-07-13T04:10:53;7.68;;;2.10;;
78820;SDS011;68171;13.882;99.692;2023-07-13T04:12:00;6.05;;;2.03;;
78820;SDS011;68171;13.882;99.692;2023-07-13T04:13:07;5.60;;;1.90;;
78820;SDS011;68171;13.882;99.692;2023-07-13T04:14:12;4.75;;;1.70;;
78820;SDS011;68171;13.882;99.692;2023-07-13T04:15:19;6.20;;;2.00;;
78820;SDS011;68171;13.882;99.692;2023-07-13T04:16:24;4.35;;;1.73;;
78820;SDS011;68171;13.882;99.692;2023-07-13T04:17:31;4.40;;;1.90;;
78820;SDS011;68171;13.882;99.692;2023-07-13T04:18:36;6.35;;;1.70;;
78820;SDS011;68171;13.882;99.692;2023-07-13T04:19:42;5.03;;;1.63;;
78820;SDS011;68171;13.882;99.692;2023-07-13T04:20:49;5.97;;;2.17;;
78820;SDS011;68171;13.882;99.692;2023-07-13T04:21:55;6.47;;;2.00;;
78820;SDS011;68171;13.882;99.692;2023-07-13T04:23:01;4.20;;;1.65;;
78820;SDS011;68171;13.882;99.692;2023-07-13T04:24:07;6.88;;;2.90;;
78820;SDS011;68171;13.882;99.692;2023-07-13T04:25:13;10.00;;;4.20;;
78820;SDS011;68171;13.882;99.692;2023-07-13T04:26:19;6.80;;;3.10;;
78820;SDS011;68171;13.882;99.692;2023-07-13T04:27:27;6.43;;;2.60;;
78820;SDS011;68171;13.882;99.692;2023-07-13T04:28:33;7.70;;;3.30;;
78820;SDS011;68171;13.882;99.692;2023-07-13T04:29:39;9.27;;;3.00;;
78820;SDS011;68171;13.882;99.692;2023-07-13T04:30:45;7.70;;;2.50;;
78820;SDS011;68171;13.882;99.692;2023-07-13T04:31:52;6.00;;;2.50;;
78820;SDS011;68171;13.882;99.692;2023-07-13T04:32:57;5.90;;;2.00;;
78820;SDS011;68171;13.882;99.692;2023-07-13T04:34:04;5.97;;;2.00;;
78820;SDS011;68171;13.882;99.692;2023-07-13T04:35:10;6.57;;;2.10;;
78820;SDS011;68171;13.882;99.692;2023-07-13T04:36:17;5.00;;;1.80;;
78820;SDS011;68171;13.882;99.692;2023-07-13T04:37:23;8.18;;;2.13;;
78820;SDS011;68171;13.882;99.692;2023-07-13T04:38:30;5.28;;;2.00;;
78820;SDS011;68171;13.882;99.692;2023-07-13T04:39:36;5.35;;;1.75;;
78820;SDS011;68171;13.882;99.692;2023-07-13T04:40:44;4.20;;;1.85;;
78820;SDS011;68171;13.882;99.692;2023-07-13T04:41:50;7.77;;;4.07;;
78820;SDS011;68171;13.882;99.692;2023-07-13T04:42:58;8.27;;;3.10;;
78820;SDS011;68171;13.882;99.692;2023-07-13T04:44:03;7.97;;;4.18;;
78820;SDS011;68171;13.882;99.692;2023-07-13T04:45:11;11.30;;;5.90;;
78820;SDS011;68171;13.882;99.692;2023-07-13T04:46:17;10.80;;;5.93;;
78820;SDS011;68171;13.882;99.692;2023-07-13T04:47:24;9.90;;;4.72;;
78820;SDS011;68171;13.882;99.692;2023-07-13T04:48:30;8.52;;;3.28;;
78820;SDS011;68171;13.882;99.692;2023-07-13T04:49:36;8.18;;;3.10;;
78820;SDS011;68171;13.882;99.692;2023-07-13T04:50:42;7.90;;;2.95;;
78820;SDS011;68171;13.882;99.692;2023-07-13T04:51:48;7.68;;;3.03;;
78820;SDS011;68171;13.882;99.692;2023-07-13T04:52:54;8.63;;;4.40;;
78820;SDS011;68171;13.882;99.692;2023-07-13T04:54:00;7.80;;;3.90;;
78820;SDS011;68171;13.882;99.692;2023-07-13T04:55:06;11.68;;;5.65;;
78820;SDS011;68171;13.882;99.692;2023-07-13T04:56:14;6.63;;;3.55;;
78820;SDS011;68171;13.882;99.692;2023-07-13T04:57:19;7.75;;;3.00;;
78820;SDS011;68171;13.882;99.692;2023-07-13T04:58:27;8.48;;;3.10;;
78820;SDS011;68171;13.882;99.692;2023-07-13T04:59:33;6.32;;;3.30;;
78820;SDS011;68171;13.882;99.692;2023-07-13T05:00:39;6.30;;;3.00;;
78820;SDS011;68171;13.882;99.692;2023-07-13T05:01:45;5.95;;;2.33;;
78820;SDS011;68171;13.882;99.692;2023-07-13T05:02:51;5.85;;;2.00;;
78820;SDS011;68171;13.882;99.692;2023-07-13T05:03:58;7.10;;;2.30;;
78820;SDS011;68171;13.882;99.692;2023-07-13T05:05:06;5.23;;;2.10;;
78820;SDS011;68171;13.882;99.692;2023-07-13T05:06:12;6.53;;;1.98;;
78820;SDS011;68171;13.882;99.692;2023-07-13T05:07:18;6.90;;;3.00;;
78820;SDS011;68171;13.882;99.692;2023-07-13T05:08:24;6.13;;;3.45;;
78820;SDS011;68171;13.882;99.692;2023-07-13T05:09:30;10.25;;;4.38;;
78820;SDS011;68171;13.882;99.692;2023-07-13T05:10:36;7.38;;;2.22;;
78820;SDS011;68171;13.882;99.692;2023-07-13T05:11:42;8.43;;;2.80;;
78820;SDS011;68171;13.882;99.692;2023-07-13T05:12:48;10.13;;;2.90;;
78820;SDS011;68171;13.882;99.692;2023-07-13T05:13:56;6.90;;;2.75;;
78820;SDS011;68171;13.882;99.692;2023-07-13T05:15:01;7.33;;;2.33;;
78820;SDS011;68171;13.882;99.692;2023-07-13T05:16:07;5.17;;;2.07;;
78820;SDS011;68171;13.882;99.692;2023-07-13T05:17:14;5.07;;;2.00;;
78820;SDS011;68171;13.882;99.692;2023-07-13T05:18:19;8.75;;;4.45;;
78820;SDS011;68171;13.882;99.692;2023-07-13T05:19:26;9.75;;;4.07;;
78820;SDS011;68171;13.882;99.692;2023-07-13T05:20:32;8.52;;;3.95;;
78820;SDS011;68171;13.882;99.692;2023-07-13T05:21:39;4.80;;;2.05;;
78820;SDS011;68171;13.882;99.692;2023-07-13T05:22:47;5.97;;;2.15;;
78820;SDS011;68171;13.882;99.692;2023-07-13T05:23:54;8.13;;;2.30;;
78820;SDS011;68171;13.882;99.692;2023-07-13T05:25:12;5.65;;;2.10;;
78820;SDS011;68171;13.882;99.692;2023-07-13T05:26:19;5.37;;;2.50;;
78820;SDS011;68171;13.882;99.692;2023-07-13T05:27:24;9.23;;;2.30;;
78820;SDS011;68171;13.882;99.692;2023-07-13T05:28:31;5.45;;;2.80;;
78820;SDS011;68171;13.882;99.692;2023-07-13T05:29:38;7.72;;;3.25;;
78820;SDS011;68171;13.882;99.692;2023-07-13T05:30:45;4.50;;;1.95;;
78820;SDS011;68171;13.882;99.692;2023-07-13T05:31:51;4.65;;;1.70;;
78820;SDS011;68171;13.882;99.692;2023-07-13T05:32:58;5.38;;;1.73;;
78820;SDS011;68171;13.882;99.692;2023-07-13T05:34:03;5.18;;;2.30;;
78820;SDS011;68171;13.882;99.692;2023-07-13T05:35:10;11.98;;;5.80;;
78820;SDS011;68171;13.882;99.692;2023-07-13T05:36:15;9.48;;;3.58;;
78820;SDS011;68171;13.882;99.692;2023-07-13T05:37:22;8.83;;;3.00;;
78820;SDS011;68171;13.882;99.692;2023-07-13T05:38:28;7.73;;;3.50;;
78820;SDS011;68171;13.882;99.692;2023-07-13T05:39:35;14.93;;;3.60;;
78820;SDS011;68171;13.882;99.692;2023-07-13T05:40:42;10.77;;;2.75;;
78820;SDS011;68171;13.882;99.692;2023-07-13T05:41:49;5.32;;;1.80;;
78820;SDS011;68171;13.882;99.692;2023-07-13T05:42:54;7.10;;;2.53;;
78820;SDS011;68171;13.882;99.692;2023-07-13T05:44:01;9.57;;;5.55;;
78820;SDS011;68171;13.882;99.692;2023-07-13T05:45:09;16.27;;;7.53;;
78820;SDS011;68171;13.882;99.692;2023-07-13T05:46:16;10.02;;;4.13;;
78820;SDS011;68171;13.882;99.692;2023-07-13T05:47:21;5.90;;;1.88;;
78820;SDS011;68171;13.882;99.692;2023-07-13T05:48:28;5.97;;;1.80;;
78820;SDS011;68171;13.882;99.692;2023-07-13T05:49:33;3.50;;;1.37;;
78820;SDS011;68171;13.882;99.692;2023-07-13T05:50:40;6.85;;;1.60;;
78820;SDS011;68171;13.882;99.692;2023-07-13T05:51:45;4.63;;;1.50;;
78820;SDS011;68171;13.882;99.692;2023-07-13T05:52:52;3.80;;;1.60;;
78820;SDS011;68171;13.882;99.692;2023-07-13T05:53:58;4.72;;;1.65;;
78820;SDS011;68171;13.882;99.692;2023-07-13T05:55:04;5.50;;;1.65;;
78820;SDS011;68171;13.882;99.692;2023-07-13T05:56:11;5.53;;;2.28;;
78820;SDS011;68171;13.882;99.692;2023-07-13T05:57:16;6.07;;;1.85;;
78820;SDS011;68171;13.882;99.692;2023-07-13T05:58:23;4.72;;;1.60;;
78820;SDS011;68171;13.882;99.692;2023-07-13T05:59:29;5.50;;;1.53;;
78820;SDS011;68171;13.882;99.692;2023-07-13T06:00:37;5.33;;;2.03;;
78820;SDS011;68171;13.882;99.692;2023-07-13T06:01:43;11.20;;;6.10;;
78820;SDS011;68171;13.882;99.692;2023-07-13T06:02:50;8.77;;;3.80;;
78820;SDS011;68171;13.882;99.692;2023-07-13T06:03:55;4.88;;;2.17;;
78820;SDS011;68171;13.882;99.692;2023-07-13T06:05:02;4.97;;;2.03;;
78820;SDS011;68171;13.882;99.692;2023-07-13T06:06:08;9.90;;;4.22;;
78820;SDS011;68171;13.882;99.692;2023-07-13T06:07:15;5.97;;;2.10;;
78820;SDS011;68171;13.882;99.692;2023-07-13T06:08:21;7.70;;;1.70;;
78820;SDS011;68171;13.882;99.692;2023-07-13T06:09:27;3.95;;;1.40;;
78820;SDS011;68171;13.882;99.692;2023-07-13T06:10:33;5.10;;;1.70;;
78820;SDS011;68171;13.882;99.692;2023-07-13T06:11:41;4.57;;;1.63;;
78820;SDS011;68171;13.882;99.692;2023-07-13T06:12:46;4.88;;;1.40;;
78820;SDS011;68171;13.882;99.692;2023-07-13T06:13:53;3.60;;;1.48;;
78820;SDS011;68171;13.882;99.692;2023-07-13T06:14:58;4.07;;;1.60;;
78820;SDS011;68171;13.882;99.692;2023-07-13T06:16:08;6.90;;;2.00;;
78820;SDS011;68171;13.882;99.692;2023-07-13T06:17:13;4.75;;;1.52;;
78820;SDS011;68171;13.882;99.692;2023-07-13T06:18:20;5.43;;;1.63;;
78820;SDS011;68171;13.882;99.692;2023-07-13T06:19:25;5.60;;;1.80;;
78820;SDS011;68171;13.882;99.692;2023-07-13T06:20:33;4.88;;;1.40;;
78820;SDS011;68171;13.882;99.692;2023-07-13T06:21:39;3.47;;;1.20;;
78820;SDS011;68171;13.882;99.692;2023-07-13T06:22:46;5.37;;;1.50;;
78820;SDS011;68171;13.882;99.692;2023-07-13T06:23:51;3.85;;;1.08;;
78820;SDS011;68171;13.882;99.692;2023-07-13T06:24:58;3.35;;;1.30;;
78820;SDS011;68171;13.882;99.692;2023-07-13T06:26:04;3.75;;;1.13;;
78820;SDS011;68171;13.882;99.692;2023-07-13T06:27:11;4.72;;;1.35;;
78820;SDS011;68171;13.882;99.692;2023-07-13T06:28:18;7.00;;;1.60;;
78820;SDS011;68171;13.882;99.692;2023-07-13T06:29:25;4.55;;;1.20;;
78820;SDS011;68171;13.882;99.692;2023-07-13T06:30:30;5.25;;;1.45;;
78820;SDS011;68171;13.882;99.692;2023-07-13T06:31:39;6.15;;;1.70;;
78820;SDS011;68171;13.882;99.692;2023-07-13T06:32:45;6.60;;;1.50;;
78820;SDS011;68171;13.882;99.692;2023-07-13T06:33:51;4.20;;;1.60;;
78820;SDS011;68171;13.882;99.692;2023-07-13T06:35:00;4.45;;;1.35;;